sensor_id;sensor_type;location;lat;lon;timestamp;temperature;humidity
4904;DHT22;2467;48.142;11.616;2022-12-18T00:00:07;-1.30;99.90
4904;DHT22;2467;48.142;11.616;2022-12-18T00:00:40;-1.30;99.90
4904;DHT22;2467;48.142;11.616;2022-12-18T00:01:16;-1.30;99.90
4904;DHT22;2467;48.142;11.616;2022-12-18T00:01:48;-1.30;99.90
4904;DHT22;2467;48.142;11.616;2022-12-18T00:02:21;-1.30;99.90
4904;DHT22;2467;48.142;11.616;2022-12-18T00:02:53;-1.30;99.90
4904;DHT22;2467;48.142;11.616;2022-12-18T00:03:26;-1.30;99.90
4904;DHT22;2467;48.142;11.616;2022-12-18T00:04:01;-1.40;99.90
4904;DHT22;2467;48.142;11.616;2022-12-18T00:04:37;-1.40;99.90
4904;DHT22;2467;48.142;11.616;2022-12-18T00:05:09;-1.40;99.90
4904;DHT22;2467;48.142;11.616;2022-12-18T00:05:48;-1.40;99.90
4904;DHT22;2467;48.142;11.616;2022-12-18T00:06:20;-1.30;99.90
4904;DHT22;2467;48.142;11.616;2022-12-18T00:06:53;-1.30;99.90
4904;DHT22;2467;48.142;11.616;2022-12-18T00:07:26;-1.30;99.90
4904;DHT22;2467;48.142;11.616;2022-12-18T00:07:58;-1.30;99.90
4904;DHT22;2467;48.142;11.616;2022-12-18T00:08:30;-1.30;99.90
4904;DHT22;2467;48.142;11.616;2022-12-18T00:09:03;-1.30;99.90
4904;DHT22;2467;48.142;11.616;2022-12-18T00:09:35;-1.40;99.90
4904;DHT22;2467;48.142;11.616;2022-12-18T00:10:11;-1.40;99.90
4904;DHT22;2467;48.142;11.616;2022-12-18T00:10:46;-1.40;99.90
4904;DHT22;2467;48.142;11.616;2022-12-18T00:11:19;-1.50;99.90
4904;DHT22;2467;48.142;11.616;2022-12-18T00:11:52;-1.50;99.90
4904;DHT22;2467;48.142;11.616;2022-12-18T00:12:24;-1.60;99.90
4904;DHT22;2467;48.142;11.616;2022-12-18T00:12:56;-1.60;99.90
4904;DHT22;2467;48.142;11.616;2022-12-18T00:13:28;-1.60;99.90
4904;DHT22;2467;48.142;11.616;2022-12-18T00:14:01;-1.60;99.90
4904;DHT22;2467;48.142;11.616;2022-12-18T00:14:34;-1.60;99.90
4904;DHT22;2467;48.142;11.616;2022-12-18T00:15:07;-1.60;99.90
4904;DHT22;2467;48.142;11.616;2022-12-18T00:15:40;-1.60;99.90
4904;DHT22;2467;48.142;11.616;2022-12-18T00:16:13;-1.50;99.90
4904;DHT22;2467;48.142;11.616;2022-12-18T00:16:46;-1.50;99.90
4904;DHT22;2467;48.142;11.616;2022-12-18T00:17:19;-1.50;99.90
4904;DHT22;2467;48.142;11.616;2022-12-18T00:17:51;-1.50;99.90
4904;DHT22;2467;48.142;11.616;2022-12-18T00:18:22;-1.60;99.90
4904;DHT22;2467;48.142;11.616;2022-12-18T00:18:56;-1.60;99.90
4904;DHT22;2467;48.142;11.616;2022-12-18T00:19:30;-1.70;99.90
4904;DHT22;2467;48.142;11.616;2022-12-18T00:20:02;-1.50;99.90
4904;DHT22;2467;48.142;11.616;2022-12-18T00:20:38;-1.70;99.90
4904;DHT22;2467;48.142;11.616;2022-12-18T00:21:12;-1.80;99.90
4904;DHT22;2467;48.142;11.616;2022-12-18T00:21:44;-1.80;99.90
4904;DHT22;2467;48.142;11.616;2022-12-18T00:22:18;-1.90;99.90
4904;DHT22;2467;48.142;11.616;2022-12-18T00:22:50;-1.90;99.90
4904;DHT22;2467;48.142;11.616;2022-12-18T00:23:22;-1.90;99.90
4904;DHT22;2467;48.142;11.616;2022-12-18T00:23:55;-1.90;99.90
4904;DHT22;2467;48.142;11.616;2022-12-18T00:24:27;-1.90;99.90
4904;DHT22;2467;48.142;11.616;2022-12-18T00:24:59;-1.90;99.90
4904;DHT22;2467;48.142;11.616;2022-12-18T00:25:32;-1.90;99.90
4904;DHT22;2467;48.142;11.616;2022-12-18T00:26:07;-1.90;99.90
4904;DHT22;2467;48.142;11.616;2022-12-18T00:26:39;-1.90;99.90
4904;DHT22;2467;48.142;11.616;2022-12-18T00:27:11;-1.80;99.90
4904;DHT22;2467;48.142;11.616;2022-12-18T00:27:43;-1.80;99.90
4904;DHT22;2467;48.142;11.616;2022-12-18T00:28:15;-1.80;99.90
4904;DHT22;2467;48.142;11.616;2022-12-18T00:28:47;-1.70;99.90
4904;DHT22;2467;48.142;11.616;2022-12-18T00:29:20;-1.70;99.90
4904;DHT22;2467;48.142;11.616;2022-12-18T00:29:53;-1.80;99.90
4904;DHT22;2467;48.142;11.616;2022-12-18T00:30:25;-1.70;99.90
4904;DHT22;2467;48.142;11.616;2022-12-18T00:31:01;-1.80;99.90
4904;DHT22;2467;48.142;11.616;2022-12-18T00:31:34;-1.90;99.90
4904;DHT22;2467;48.142;11.616;2022-12-18T00:32:05;-1.90;99.90
4904;DHT22;2467;48.142;11.616;2022-12-18T00:32:38;-1.90;99.90
4904;DHT22;2467;48.142;11.616;2022-12-18T00:33:10;-1.90;99.90
4904;DHT22;2467;48.142;11.616;2022-12-18T00:33:42;-1.90;99.90
4904;DHT22;2467;48.142;11.616;2022-12-18T00:34:14;-1.90;99.90
4904;DHT22;2467;48.142;11.616;2022-12-18T00:34:47;-1.80;99.90
4904;DHT22;2467;48.142;11.616;2022-12-18T00:35:19;-1.80;99.90
4904;DHT22;2467;48.142;11.616;2022-12-18T00:35:51;-1.80;99.90
4904;DHT22;2467;48.142;11.616;2022-12-18T00:36:26;-1.80;99.90
4904;DHT22;2467;48.142;11.616;2022-12-18T00:36:59;-1.70;99.90
4904;DHT22;2467;48.142;11.616;2022-12-18T00:37:31;-1.70;99.90
4904;DHT22;2467;48.142;11.616;2022-12-18T00:38:02;-1.70;99.90
4904;DHT22;2467;48.142;11.616;2022-12-18T00:38:37;-1.70;99.90
4904;DHT22;2467;48.142;11.616;2022-12-18T00:39:10;-1.70;99.90
4904;DHT22;2467;48.142;11.616;2022-12-18T00:39:43;-1.70;99.90
4904;DHT22;2467;48.142;11.616;2022-12-18T00:40:16;-1.70;99.90
4904;DHT22;2467;48.142;11.616;2022-12-18T00:40:48;-1.70;99.90
4904;DHT22;2467;48.142;11.616;2022-12-18T00:41:20;-1.70;99.90
4904;DHT22;2467;48.142;11.616;2022-12-18T00:42:08;-1.70;99.90
4904;DHT22;2467;48.142;11.616;2022-12-18T00:43:00;-1.80;99.90
4904;DHT22;2467;48.142;11.616;2022-12-18T00:43:33;-1.90;99.90
4904;DHT22;2467;48.142;11.616;2022-12-18T00:44:06;-1.90;99.90
4904;DHT22;2467;48.142;11.616;2022-12-18T00:44:38;-1.90;99.90
4904;DHT22;2467;48.142;11.616;2022-12-18T00:45:12;-1.90;99.90
4904;DHT22;2467;48.142;11.616;2022-12-18T00:45:45;-1.90;99.90
4904;DHT22;2467;48.142;11.616;2022-12-18T00:46:17;-1.90;99.90
4904;DHT22;2467;48.142;11.616;2022-12-18T00:46:50;-1.90;99.90
4904;DHT22;2467;48.142;11.616;2022-12-18T00:47:23;-1.80;99.90
4904;DHT22;2467;48.142;11.616;2022-12-18T00:47:55;-1.60;99.90
4904;DHT22;2467;48.142;11.616;2022-12-18T00:48:27;-1.80;99.90
4904;DHT22;2467;48.142;11.616;2022-12-18T00:49:00;-1.80;99.90
4904;DHT22;2467;48.142;11.616;2022-12-18T00:49:32;-1.80;99.90
4904;DHT22;2467;48.142;11.616;2022-12-18T00:50:04;-1.70;99.90
4904;DHT22;2467;48.142;11.616;2022-12-18T00:50:37;-1.70;99.90
4904;DHT22;2467;48.142;11.616;2022-12-18T00:51:09;-1.60;99.90
4904;DHT22;2467;48.142;11.616;2022-12-18T00:51:41;-1.60;99.90
4904;DHT22;2467;48.142;11.616;2022-12-18T00:52:15;-1.60;99.90
4904;DHT22;2467;48.142;11.616;2022-12-18T00:52:47;-1.50;99.90
4904;DHT22;2467;48.142;11.616;2022-12-18T00:53:19;-1.50;99.90
4904;DHT22;2467;48.142;11.616;2022-12-18T00:53:52;-1.60;99.90
4904;DHT22;2467;48.142;11.616;2022-12-18T00:54:24;-1.60;99.90
4904;DHT22;2467;48.142;11.616;2022-12-18T00:54:57;-1.60;99.90
4904;DHT22;2467;48.142;11.616;2022-12-18T00:55:37;-1.50;99.90
4904;DHT22;2467;48.142;11.616;2022-12-18T00:56:09;-1.50;99.90
4904;DHT22;2467;48.142;11.616;2022-12-18T00:56:42;-1.50;99.90
4904;DHT22;2467;48.142;11.616;2022-12-18T00:57:20;-1.50;99.90
4904;DHT22;2467;48.142;11.616;2022-12-18T00:57:52;-1.50;99.90
4904;DHT22;2467;48.142;11.616;2022-12-18T00:58:25;-1.50;99.90
4904;DHT22;2467;48.142;11.616;2022-12-18T00:58:57;-1.40;99.90
4904;DHT22;2467;48.142;11.616;2022-12-18T00:59:29;-1.40;99.90
4904;DHT22;2467;48.142;11.616;2022-12-18T01:00:02;-1.40;99.90
4904;DHT22;2467;48.142;11.616;2022-12-18T01:00:36;-1.40;99.90
4904;DHT22;2467;48.142;11.616;2022-12-18T01:01:09;-1.40;99.90
4904;DHT22;2467;48.142;11.616;2022-12-18T01:01:41;-1.40;99.90
4904;DHT22;2467;48.142;11.616;2022-12-18T01:02:14;-1.40;99.90
4904;DHT22;2467;48.142;11.616;2022-12-18T01:02:46;-1.40;99.90
4904;DHT22;2467;48.142;11.616;2022-12-18T01:03:18;-1.50;99.90
4904;DHT22;2467;48.142;11.616;2022-12-18T01:03:51;-1.50;99.90
4904;DHT22;2467;48.142;11.616;2022-12-18T01:04:23;-1.50;99.90
4904;DHT22;2467;48.142;11.616;2022-12-18T01:04:56;-1.50;99.90
4904;DHT22;2467;48.142;11.616;2022-12-18T01:05:28;-1.50;99.90
4904;DHT22;2467;48.142;11.616;2022-12-18T01:06:04;-1.50;99.90
4904;DHT22;2467;48.142;11.616;2022-12-18T01:06:37;-1.50;99.90
4904;DHT22;2467;48.142;11.616;2022-12-18T01:07:09;-1.50;99.90
4904;DHT22;2467;48.142;11.616;2022-12-18T01:07:42;-1.50;99.90
4904;DHT22;2467;48.142;11.616;2022-12-18T01:08:13;-1.60;99.90
4904;DHT22;2467;48.142;11.616;2022-12-18T01:08:46;-1.60;99.90
4904;DHT22;2467;48.142;11.616;2022-12-18T01:09:18;-1.60;99.90
4904;DHT22;2467;48.142;11.616;2022-12-18T01:09:50;-1.60;99.90
4904;DHT22;2467;48.142;11.616;2022-12-18T01:10:23;-1.70;99.90
4904;DHT22;2467;48.142;11.616;2022-12-18T01:10:55;-1.70;99.90
4904;DHT22;2467;48.142;11.616;2022-12-18T01:11:27;-1.70;99.90
4904;DHT22;2467;48.142;11.616;2022-12-18T01:12:00;-1.70;99.90
4904;DHT22;2467;48.142;11.616;2022-12-18T01:12:32;-1.80;99.90
4904;DHT22;2467;48.142;11.616;2022-12-18T01:13:04;-1.80;99.90
4904;DHT22;2467;48.142;11.616;2022-12-18T01:13:35;-1.70;99.90
4904;DHT22;2467;48.142;11.616;2022-12-18T01:14:09;-1.70;99.90
4904;DHT22;2467;48.142;11.616;2022-12-18T01:14:41;-1.70;99.90
4904;DHT22;2467;48.142;11.616;2022-12-18T01:15:14;-1.70;99.90
4904;DHT22;2467;48.142;11.616;2022-12-18T01:15:49;-1.60;99.90
4904;DHT22;2467;48.142;11.616;2022-12-18T01:16:21;-1.60;99.90
4904;DHT22;2467;48.142;11.616;2022-12-18T01:16:53;-1.60;99.90
4904;DHT22;2467;48.142;11.616;2022-12-18T01:17:25;-1.60;99.90
4904;DHT22;2467;48.142;11.616;2022-12-18T01:17:58;-1.50;99.90
4904;DHT22;2467;48.142;11.616;2022-12-18T01:18:30;-1.50;99.90
4904;DHT22;2467;48.142;11.616;2022-12-18T01:19:02;-1.60;99.90
4904;DHT22;2467;48.142;11.616;2022-12-18T01:19:35;-1.60;99.90
4904;DHT22;2467;48.142;11.616;2022-12-18T01:20:08;-1.60;99.90
4904;DHT22;2467;48.142;11.616;2022-12-18T01:20:40;-1.50;99.90
4904;DHT22;2467;48.142;11.616;2022-12-18T01:21:14;-1.50;99.90
4904;DHT22;2467;48.142;11.616;2022-12-18T01:21:47;-1.50;99.90
4904;DHT22;2467;48.142;11.616;2022-12-18T01:22:19;-1.50;99.90
4904;DHT22;2467;48.142;11.616;2022-12-18T01:22:51;-1.50;99.90
4904;DHT22;2467;48.142;11.616;2022-12-18T01:23:24;-1.50;99.90
4904;DHT22;2467;48.142;11.616;2022-12-18T01:23:56;-1.50;99.90
4904;DHT22;2467;48.142;11.616;2022-12-18T01:24:28;-1.50;99.90
4904;DHT22;2467;48.142;11.616;2022-12-18T01:25:01;-1.50;99.90
4904;DHT22;2467;48.142;11.616;2022-12-18T01:25:33;-1.50;99.90
4904;DHT22;2467;48.142;11.616;2022-12-18T01:26:08;-1.50;99.90
4904;DHT22;2467;48.142;11.616;2022-12-18T01:26:40;-1.40;99.90
4904;DHT22;2467;48.142;11.616;2022-12-18T01:27:12;-1.40;99.90
4904;DHT22;2467;48.142;11.616;2022-12-18T01:27:44;-1.40;99.90
4904;DHT22;2467;48.142;11.616;2022-12-18T01:28:16;-1.40;99.90
4904;DHT22;2467;48.142;11.616;2022-12-18T01:28:48;-1.40;99.90
4904;DHT22;2467;48.142;11.616;2022-12-18T01:29:21;-1.30;99.90
4904;DHT22;2467;48.142;11.616;2022-12-18T01:29:53;-1.30;99.90
4904;DHT22;2467;48.142;11.616;2022-12-18T01:30:25;-1.30;99.90
4904;DHT22;2467;48.142;11.616;2022-12-18T01:31:09;-1.30;99.90
4904;DHT22;2467;48.142;11.616;2022-12-18T01:31:41;-1.30;99.90
4904;DHT22;2467;48.142;11.616;2022-12-18T01:32:13;-1.30;99.90
4904;DHT22;2467;48.142;11.616;2022-12-18T01:32:46;-1.30;99.90
4904;DHT22;2467;48.142;11.616;2022-12-18T01:33:18;-1.30;99.90
4904;DHT22;2467;48.142;11.616;2022-12-18T01:33:50;-1.30;99.90
4904;DHT22;2467;48.142;11.616;2022-12-18T01:34:24;-1.30;99.90
4904;DHT22;2467;48.142;11.616;2022-12-18T01:34:55;-1.20;99.90
4904;DHT22;2467;48.142;11.616;2022-12-18T01:35:27;-1.20;99.90
4904;DHT22;2467;48.142;11.616;2022-12-18T01:35:59;-1.20;99.90
4904;DHT22;2467;48.142;11.616;2022-12-18T01:36:33;-1.20;99.90
4904;DHT22;2467;48.142;11.616;2022-12-18T01:37:06;-1.20;99.90
4904;DHT22;2467;48.142;11.616;2022-12-18T01:37:38;-1.20;99.90
4904;DHT22;2467;48.142;11.616;2022-12-18T01:38:10;-1.20;99.90
4904;DHT22;2467;48.142;11.616;2022-12-18T01:38:42;-1.20;99.90
4904;DHT22;2467;48.142;11.616;2022-12-18T01:39:15;-1.20;99.90
4904;DHT22;2467;48.142;11.616;2022-12-18T01:39:48;-1.20;99.90
4904;DHT22;2467;48.142;11.616;2022-12-18T01:40:21;-1.20;99.90
4904;DHT22;2467;48.142;11.616;2022-12-18T01:40:57;-1.10;99.90
4904;DHT22;2467;48.142;11.616;2022-12-18T01:41:30;-1.10;99.90
4904;DHT22;2467;48.142;11.616;2022-12-18T01:42:23;-1.20;99.90
4904;DHT22;2467;48.142;11.616;2022-12-18T01:42:57;-1.20;99.90
4904;DHT22;2467;48.142;11.616;2022-12-18T01:43:42;-1.20;99.90
4904;DHT22;2467;48.142;11.616;2022-12-18T01:45:26;-1.30;99.90
4904;DHT22;2467;48.142;11.616;2022-12-18T01:46:00;-1.30;99.90
4904;DHT22;2467;48.142;11.616;2022-12-18T01:46:33;-1.40;99.90
4904;DHT22;2467;48.142;11.616;2022-12-18T01:47:05;-1.40;99.90
4904;DHT22;2467;48.142;11.616;2022-12-18T01:47:39;-1.40;99.90
4904;DHT22;2467;48.142;11.616;2022-12-18T01:48:16;-1.40;99.90
4904;DHT22;2467;48.142;11.616;2022-12-18T01:48:49;-1.50;99.90
4904;DHT22;2467;48.142;11.616;2022-12-18T01:49:22;-1.50;99.90
4904;DHT22;2467;48.142;11.616;2022-12-18T01:49:55;-1.50;99.90
4904;DHT22;2467;48.142;11.616;2022-12-18T01:50:31;-1.40;99.90
4904;DHT22;2467;48.142;11.616;2022-12-18T01:51:04;-1.40;99.90
4904;DHT22;2467;48.142;11.616;2022-12-18T01:51:37;-1.40;99.90
4904;DHT22;2467;48.142;11.616;2022-12-18T01:52:09;-1.50;99.90
4904;DHT22;2467;48.142;11.616;2022-12-18T01:52:43;-1.50;99.90
4904;DHT22;2467;48.142;11.616;2022-12-18T01:53:18;-1.60;99.90
4904;DHT22;2467;48.142;11.616;2022-12-18T01:53:52;-1.70;99.90
4904;DHT22;2467;48.142;11.616;2022-12-18T01:54:25;-1.80;99.90
4904;DHT22;2467;48.142;11.616;2022-12-18T01:54:57;-1.80;99.90
4904;DHT22;2467;48.142;11.616;2022-12-18T01:55:31;-1.80;99.90
4904;DHT22;2467;48.142;11.616;2022-12-18T01:56:05;-1.70;99.90
4904;DHT22;2467;48.142;11.616;2022-12-18T01:56:37;-1.70;99.90
4904;DHT22;2467;48.142;11.616;2022-12-18T01:57:08;-1.60;99.90
4904;DHT22;2467;48.142;11.616;2022-12-18T01:57:41;-1.60;99.90
4904;DHT22;2467;48.142;11.616;2022-12-18T01:58:15;-1.60;99.90
4904;DHT22;2467;48.142;11.616;2022-12-18T01:58:52;-1.60;99.90
4904;DHT22;2467;48.142;11.616;2022-12-18T01:59:25;-1.50;99.90
4904;DHT22;2467;48.142;11.616;2022-12-18T02:00:02;-1.50;99.90
4904;DHT22;2467;48.142;11.616;2022-12-18T02:00:34;-1.50;99.90
4904;DHT22;2467;48.142;11.616;2022-12-18T02:01:08;-1.40;99.90
4904;DHT22;2467;48.142;11.616;2022-12-18T02:01:41;-1.40;99.90
4904;DHT22;2467;48.142;11.616;2022-12-18T02:02:13;-1.40;99.90
4904;DHT22;2467;48.142;11.616;2022-12-18T02:02:47;-1.40;99.90
4904;DHT22;2467;48.142;11.616;2022-12-18T02:03:20;-1.40;99.90
4904;DHT22;2467;48.142;11.616;2022-12-18T02:03:53;-1.40;99.90
4904;DHT22;2467;48.142;11.616;2022-12-18T02:04:26;-1.40;99.90
4904;DHT22;2467;48.142;11.616;2022-12-18T02:05:00;-1.40;99.90
4904;DHT22;2467;48.142;11.616;2022-12-18T02:05:40;-1.40;99.90
4904;DHT22;2467;48.142;11.616;2022-12-18T02:06:15;-1.40;99.90
4904;DHT22;2467;48.142;11.616;2022-12-18T02:06:52;-1.40;99.90
4904;DHT22;2467;48.142;11.616;2022-12-18T02:07:38;-1.40;99.90
4904;DHT22;2467;48.142;11.616;2022-12-18T02:08:17;-1.40;99.90
4904;DHT22;2467;48.142;11.616;2022-12-18T02:09:02;-1.40;99.90
4904;DHT22;2467;48.142;11.616;2022-12-18T02:09:41;-1.40;99.90
4904;DHT22;2467;48.142;11.616;2022-12-18T02:10:19;-1.40;99.90
4904;DHT22;2467;48.142;11.616;2022-12-18T02:10:59;-1.40;99.90
4904;DHT22;2467;48.142;11.616;2022-12-18T02:11:44;-1.40;99.90
4904;DHT22;2467;48.142;11.616;2022-12-18T02:12:20;-1.40;99.90
4904;DHT22;2467;48.142;11.616;2022-12-18T02:12:57;-1.40;99.90
4904;DHT22;2467;48.142;11.616;2022-12-18T02:13:39;-1.40;99.90
4904;DHT22;2467;48.142;11.616;2022-12-18T02:14:18;-1.50;99.90
4904;DHT22;2467;48.142;11.616;2022-12-18T02:14:59;-1.50;99.90
4904;DHT22;2467;48.142;11.616;2022-12-18T02:15:36;-1.50;99.90
4904;DHT22;2467;48.142;11.616;2022-12-18T02:16:20;-1.50;99.90
4904;DHT22;2467;48.142;11.616;2022-12-18T02:16:59;-1.50;99.90
4904;DHT22;2467;48.142;11.616;2022-12-18T02:17:37;-1.50;99.90
4904;DHT22;2467;48.142;11.616;2022-12-18T02:18:13;-1.50;99.90
4904;DHT22;2467;48.142;11.616;2022-12-18T02:18:53;-1.50;99.90
4904;DHT22;2467;48.142;11.616;2022-12-18T02:19:44;-1.50;99.90
4904;DHT22;2467;48.142;11.616;2022-12-18T02:20:24;-1.40;99.90
4904;DHT22;2467;48.142;11.616;2022-12-18T02:21:05;-1.40;99.90
4904;DHT22;2467;48.142;11.616;2022-12-18T02:21:46;-1.40;99.90
4904;DHT22;2467;48.142;11.616;2022-12-18T02:22:27;-1.40;99.90
4904;DHT22;2467;48.142;11.616;2022-12-18T02:23:15;-1.50;99.90
4904;DHT22;2467;48.142;11.616;2022-12-18T02:23:54;-1.50;99.90
4904;DHT22;2467;48.142;11.616;2022-12-18T02:24:33;-1.50;99.90
4904;DHT22;2467;48.142;11.616;2022-12-18T02:25:17;-1.50;99.90
4904;DHT22;2467;48.142;11.616;2022-12-18T02:26:12;-1.50;99.90
4904;DHT22;2467;48.142;11.616;2022-12-18T02:26:47;-1.50;99.90
4904;DHT22;2467;48.142;11.616;2022-12-18T02:27:21;-1.60;99.90
4904;DHT22;2467;48.142;11.616;2022-12-18T02:27:55;-1.60;99.90
4904;DHT22;2467;48.142;11.616;2022-12-18T02:28:32;-1.60;99.90
4904;DHT22;2467;48.142;11.616;2022-12-18T02:29:10;-1.60;99.90
4904;DHT22;2467;48.142;11.616;2022-12-18T02:29:47;-1.60;99.90
4904;DHT22;2467;48.142;11.616;2022-12-18T02:30:31;-1.60;99.90
4904;DHT22;2467;48.142;11.616;2022-12-18T02:31:07;-1.60;99.90
4904;DHT22;2467;48.142;11.616;2022-12-18T02:31:43;-1.60;99.90
4904;DHT22;2467;48.142;11.616;2022-12-18T02:32:21;-1.60;99.90
4904;DHT22;2467;48.142;11.616;2022-12-18T02:32:56;-1.60;99.90
4904;DHT22;2467;48.142;11.616;2022-12-18T02:33:30;-1.60;99.90
4904;DHT22;2467;48.142;11.616;2022-12-18T02:34:04;-1.60;99.90
4904;DHT22;2467;48.142;11.616;2022-12-18T02:34:39;-1.50;99.90
4904;DHT22;2467;48.142;11.616;2022-12-18T02:35:13;-1.50;99.90
4904;DHT22;2467;48.142;11.616;2022-12-18T02:35:48;-1.50;99.90
4904;DHT22;2467;48.142;11.616;2022-12-18T02:36:22;-1.50;99.90
4904;DHT22;2467;48.142;11.616;2022-12-18T02:36:55;-1.50;99.90
4904;DHT22;2467;48.142;11.616;2022-12-18T02:37:30;-1.50;99.90
4904;DHT22;2467;48.142;11.616;2022-12-18T02:38:04;-1.50;99.90
4904;DHT22;2467;48.142;11.616;2022-12-18T02:38:37;-1.50;99.90
4904;DHT22;2467;48.142;11.616;2022-12-18T02:39:11;-1.50;99.90
4904;DHT22;2467;48.142;11.616;2022-12-18T02:39:47;-1.50;99.90
4904;DHT22;2467;48.142;11.616;2022-12-18T02:40:22;-1.50;99.90
4904;DHT22;2467;48.142;11.616;2022-12-18T02:40:55;-1.40;99.90
4904;DHT22;2467;48.142;11.616;2022-12-18T02:41:31;-1.40;99.90
4904;DHT22;2467;48.142;11.616;2022-12-18T02:42:03;-1.40;99.90
4904;DHT22;2467;48.142;11.616;2022-12-18T02:42:39;-1.40;99.90
4904;DHT22;2467;48.142;11.616;2022-12-18T02:43:14;-1.50;99.90
4904;DHT22;2467;48.142;11.616;2022-12-18T02:43:55;-1.50;99.90
4904;DHT22;2467;48.142;11.616;2022-12-18T02:44:28;-1.60;99.90
4904;DHT22;2467;48.142;11.616;2022-12-18T02:45:00;-1.60;99.90
4904;DHT22;2467;48.142;11.616;2022-12-18T02:45:32;-1.70;99.90
4904;DHT22;2467;48.142;11.616;2022-12-18T02:46:27;-1.70;99.90
4904;DHT22;2467;48.142;11.616;2022-12-18T02:47:01;-1.70;99.90
4904;DHT22;2467;48.142;11.616;2022-12-18T02:47:37;-1.70;99.90
4904;DHT22;2467;48.142;11.616;2022-12-18T02:48:10;-1.70;99.90
4904;DHT22;2467;48.142;11.616;2022-12-18T02:48:42;-1.70;99.90
4904;DHT22;2467;48.142;11.616;2022-12-18T02:49:25;-1.80;99.90
4904;DHT22;2467;48.142;11.616;2022-12-18T02:50:08;-1.80;99.90
4904;DHT22;2467;48.142;11.616;2022-12-18T02:50:45;-1.70;99.90
4904;DHT22;2467;48.142;11.616;2022-12-18T02:51:27;-1.70;99.90
4904;DHT22;2467;48.142;11.616;2022-12-18T02:52:07;-1.70;99.90
4904;DHT22;2467;48.142;11.616;2022-12-18T02:52:51;-1.80;99.90
4904;DHT22;2467;48.142;11.616;2022-12-18T02:53:31;-1.80;99.90
4904;DHT22;2467;48.142;11.616;2022-12-18T02:54:09;-1.80;99.90
4904;DHT22;2467;48.142;11.616;2022-12-18T02:54:52;-1.70;99.90
4904;DHT22;2467;48.142;11.616;2022-12-18T02:55:33;-1.70;99.90
4904;DHT22;2467;48.142;11.616;2022-12-18T02:56:11;-1.70;99.90
4904;DHT22;2467;48.142;11.616;2022-12-18T02:56:51;-1.60;99.90
4904;DHT22;2467;48.142;11.616;2022-12-18T02:57:33;-1.60;99.90
4904;DHT22;2467;48.142;11.616;2022-12-18T02:58:12;-1.70;99.90
4904;DHT22;2467;48.142;11.616;2022-12-18T02:58:52;-1.70;99.90
4904;DHT22;2467;48.142;11.616;2022-12-18T02:59:31;-1.70;99.90
4904;DHT22;2467;48.142;11.616;2022-12-18T03:00:08;-1.70;99.90
4904;DHT22;2467;48.142;11.616;2022-12-18T03:00:47;-1.70;99.90
4904;DHT22;2467;48.142;11.616;2022-12-18T03:01:25;-1.60;99.90
4904;DHT22;2467;48.142;11.616;2022-12-18T03:02:00;-1.60;99.90
4904;DHT22;2467;48.142;11.616;2022-12-18T03:02:39;-1.60;99.90
4904;DHT22;2467;48.142;11.616;2022-12-18T03:03:18;-1.70;99.90
4904;DHT22;2467;48.142;11.616;2022-12-18T03:03:56;-1.60;99.90
4904;DHT22;2467;48.142;11.616;2022-12-18T03:04:34;-1.60;99.90
4904;DHT22;2467;48.142;11.616;2022-12-18T03:05:12;-1.60;99.90
4904;DHT22;2467;48.142;11.616;2022-12-18T03:05:47;-1.60;99.90
4904;DHT22;2467;48.142;11.616;2022-12-18T03:06:26;-1.60;99.90
4904;DHT22;2467;48.142;11.616;2022-12-18T03:07:03;-1.60;99.90
4904;DHT22;2467;48.142;11.616;2022-12-18T03:07:41;-1.50;99.90
4904;DHT22;2467;48.142;11.616;2022-12-18T03:08:18;-1.50;99.90
4904;DHT22;2467;48.142;11.616;2022-12-18T03:08:54;-1.50;99.90
4904;DHT22;2467;48.142;11.616;2022-12-18T03:09:31;-1.50;99.90
4904;DHT22;2467;48.142;11.616;2022-12-18T03:10:08;-1.40;99.90
4904;DHT22;2467;48.142;11.616;2022-12-18T03:10:44;-1.40;99.90
4904;DHT22;2467;48.142;11.616;2022-12-18T03:11:17;-1.40;99.90
4904;DHT22;2467;48.142;11.616;2022-12-18T03:12:17;-1.30;99.90
4904;DHT22;2467;48.142;11.616;2022-12-18T03:12:59;-1.30;99.90
4904;DHT22;2467;48.142;11.616;2022-12-18T03:13:36;-1.30;99.90
4904;DHT22;2467;48.142;11.616;2022-12-18T03:14:11;-1.30;99.90
4904;DHT22;2467;48.142;11.616;2022-12-18T03:14:45;-1.30;99.90
4904;DHT22;2467;48.142;11.616;2022-12-18T03:15:24;-1.30;99.90
4904;DHT22;2467;48.142;11.616;2022-12-18T03:16:00;-1.30;99.90
4904;DHT22;2467;48.142;11.616;2022-12-18T03:16:34;-1.20;99.90
4904;DHT22;2467;48.142;11.616;2022-12-18T03:17:11;-1.30;99.90
4904;DHT22;2467;48.142;11.616;2022-12-18T03:17:48;-1.30;99.90
4904;DHT22;2467;48.142;11.616;2022-12-18T03:18:24;-1.30;99.90
4904;DHT22;2467;48.142;11.616;2022-12-18T03:19:00;-1.30;99.90
4904;DHT22;2467;48.142;11.616;2022-12-18T03:19:33;-1.30;99.90
4904;DHT22;2467;48.142;11.616;2022-12-18T03:20:10;-1.50;99.90
4904;DHT22;2467;48.142;11.616;2022-12-18T03:20:45;-1.30;99.90
4904;DHT22;2467;48.142;11.616;2022-12-18T03:21:23;-1.30;99.90
4904;DHT22;2467;48.142;11.616;2022-12-18T03:22:01;-1.40;99.90
4904;DHT22;2467;48.142;11.616;2022-12-18T03:22:35;-1.40;99.90
4904;DHT22;2467;48.142;11.616;2022-12-18T03:23:10;-1.50;99.90
4904;DHT22;2467;48.142;11.616;2022-12-18T03:23:47;-1.50;99.90
4904;DHT22;2467;48.142;11.616;2022-12-18T03:24:21;-1.50;99.90
4904;DHT22;2467;48.142;11.616;2022-12-18T03:24:56;-1.60;99.90
4904;DHT22;2467;48.142;11.616;2022-12-18T03:25:30;-1.60;99.90
4904;DHT22;2467;48.142;11.616;2022-12-18T03:26:07;-1.60;99.90
4904;DHT22;2467;48.142;11.616;2022-12-18T03:26:42;-1.60;99.90
4904;DHT22;2467;48.142;11.616;2022-12-18T03:27:18;-1.60;99.90
4904;DHT22;2467;48.142;11.616;2022-12-18T03:27:55;-1.60;99.90
4904;DHT22;2467;48.142;11.616;2022-12-18T03:28:30;-1.60;99.90
4904;DHT22;2467;48.142;11.616;2022-12-18T03:29:08;-1.60;99.90
4904;DHT22;2467;48.142;11.616;2022-12-18T03:29:45;-1.60;99.90
4904;DHT22;2467;48.142;11.616;2022-12-18T03:30:18;-1.70;99.90
4904;DHT22;2467;48.142;11.616;2022-12-18T03:30:55;-1.70;99.90
4904;DHT22;2467;48.142;11.616;2022-12-18T03:31:30;-1.80;99.90
4904;DHT22;2467;48.142;11.616;2022-12-18T03:32:09;-1.70;99.90
4904;DHT22;2467;48.142;11.616;2022-12-18T03:32:46;-1.70;99.90
4904;DHT22;2467;48.142;11.616;2022-12-18T03:33:21;-1.70;99.90
4904;DHT22;2467;48.142;11.616;2022-12-18T03:33:58;-1.60;99.90
4904;DHT22;2467;48.142;11.616;2022-12-18T03:34:33;-1.60;99.90
4904;DHT22;2467;48.142;11.616;2022-12-18T03:35:08;-1.60;99.90
4904;DHT22;2467;48.142;11.616;2022-12-18T03:35:42;-1.60;99.90
4904;DHT22;2467;48.142;11.616;2022-12-18T03:36:15;-1.50;99.90
4904;DHT22;2467;48.142;11.616;2022-12-18T03:36:47;-1.50;99.90
4904;DHT22;2467;48.142;11.616;2022-12-18T03:37:19;-1.50;99.90
4904;DHT22;2467;48.142;11.616;2022-12-18T03:37:51;-1.40;99.90
4904;DHT22;2467;48.142;11.616;2022-12-18T03:38:24;-1.40;99.90
4904;DHT22;2467;48.142;11.616;2022-12-18T03:38:57;-1.40;99.90
4904;DHT22;2467;48.142;11.616;2022-12-18T03:39:29;-1.40;99.90
4904;DHT22;2467;48.142;11.616;2022-12-18T03:40:03;-1.40;99.90
4904;DHT22;2467;48.142;11.616;2022-12-18T03:40:43;-1.40;99.90
4904;DHT22;2467;48.142;11.616;2022-12-18T03:41:19;-1.40;99.90
4904;DHT22;2467;48.142;11.616;2022-12-18T03:42:01;-1.40;99.90
4904;DHT22;2467;48.142;11.616;2022-12-18T03:42:43;-1.40;99.90
4904;DHT22;2467;48.142;11.616;2022-12-18T03:43:20;-1.40;99.90
4904;DHT22;2467;48.142;11.616;2022-12-18T03:44:01;-1.40;99.90
4904;DHT22;2467;48.142;11.616;2022-12-18T03:44:42;-1.40;99.90
4904;DHT22;2467;48.142;11.616;2022-12-18T03:45:21;-1.40;99.90
4904;DHT22;2467;48.142;11.616;2022-12-18T03:46:02;-1.40;99.90